sensor_id;sensor_type;location;lat;lon;timestamp;pressure;altitude;pressure_sealevel;temperature;humidity
51229;BME280;37304;52.216;6.874;2022-08-26T00:01:33;101021.00;;;22.45;94.21
51229;BME280;37304;52.216;6.874;2022-08-26T00:06:33;101022.56;;;22.34;95.69
51229;BME280;37304;52.216;6.874;2022-08-26T00:11:34;101028.44;;;22.25;97.30
51229;BME280;37304;52.216;6.874;2022-08-26T00:16:34;101030.69;;;22.17;100.00
51229;BME280;37304;52.216;6.874;2022-08-26T00:21:35;101043.47;;;22.10;100.00
51229;BME280;37304;52.216;6.874;2022-08-26T00:26:35;101040.09;;;21.93;100.00
51229;BME280;37304;52.216;6.874;2022-08-26T00:31:36;101030.53;;;21.91;100.00
51229;BME280;37304;52.216;6.874;2022-08-26T00:36:37;101033.81;;;21.80;100.00
51229;BME280;37304;52.216;6.874;2022-08-26T00:41:39;101037.78;;;21.73;100.00
51229;BME280;37304;52.216;6.874;2022-08-26T00:46:47;101032.47;;;21.58;100.00
51229;BME280;37304;52.216;6.874;2022-08-26T00:51:51;101035.75;;;21.47;100.00
51229;BME280;37304;52.216;6.874;2022-08-26T00:56:59;101042.53;;;21.37;100.00
51229;BME280;37304;52.216;6.874;2022-08-26T01:02:00;101035.06;;;21.29;100.00
51229;BME280;37304;52.216;6.874;2022-08-26T01:07:02;101032.78;;;21.23;100.00
51229;BME280;37304;52.216;6.874;2022-08-26T01:12:03;101042.09;;;21.14;100.00
51229;BME280;37304;52.216;6.874;2022-08-26T01:17:05;101041.00;;;21.02;100.00
51229;BME280;37304;52.216;6.874;2022-08-26T01:22:20;101053.72;;;20.95;100.00
51229;BME280;37304;52.216;6.874;2022-08-26T01:27:22;101040.69;;;20.92;100.00
51229;BME280;37304;52.216;6.874;2022-08-26T01:32:24;101049.44;;;20.77;100.00
51229;BME280;37304;52.216;6.874;2022-08-26T01:37:31;101049.63;;;20.74;100.00
51229;BME280;37304;52.216;6.874;2022-08-26T01:42:32;101055.06;;;20.71;100.00
51229;BME280;37304;52.216;6.874;2022-08-26T01:47:35;101057.22;;;20.64;100.00
51229;BME280;37304;52.216;6.874;2022-08-26T01:52:39;101063.94;;;20.54;100.00
51229;BME280;37304;52.216;6.874;2022-08-26T01:57:42;101071.34;;;20.47;100.00
51229;BME280;37304;52.216;6.874;2022-08-26T02:02:46;101072.28;;;20.46;100.00
51229;BME280;37304;52.216;6.874;2022-08-26T02:07:47;101085.81;;;20.40;100.00
51229;BME280;37304;52.216;6.874;2022-08-26T02:12:49;101074.84;;;20.31;100.00
51229;BME280;37304;52.216;6.874;2022-08-26T02:17:50;101078.47;;;20.29;100.00
51229;BME280;37304;52.216;6.874;2022-08-26T02:22:51;101088.00;;;20.15;100.00
51229;BME280;37304;52.216;6.874;2022-08-26T02:27:51;101082.94;;;20.11;100.00
51229;BME280;37304;52.216;6.874;2022-08-26T02:32:52;101088.22;;;20.11;100.00
51229;BME280;37304;52.216;6.874;2022-08-26T02:37:52;101096.47;;;20.04;100.00
51229;BME280;37304;52.216;6.874;2022-08-26T02:42:53;101104.06;;;20.11;100.00
51229;BME280;37304;52.216;6.874;2022-08-26T02:47:55;101110.88;;;20.15;100.00
51229;BME280;37304;52.216;6.874;2022-08-26T02:52:57;101108.16;;;20.16;100.00
51229;BME280;37304;52.216;6.874;2022-08-26T02:57:58;101105.44;;;20.18;100.00
51229;BME280;37304;52.216;6.874;2022-08-26T03:02:58;101106.31;;;20.18;100.00
51229;BME280;37304;52.216;6.874;2022-08-26T03:07:59;101105.25;;;20.21;100.00
51229;BME280;37304;52.216;6.874;2022-08-26T03:13:00;101112.78;;;20.29;100.00
51229;BME280;37304;52.216;6.874;2022-08-26T03:18:01;101102.72;;;20.19;100.00
51229;BME280;37304;52.216;6.874;2022-08-26T03:23:01;101097.22;;;20.24;100.00
51229;BME280;37304;52.216;6.874;2022-08-26T03:28:02;101097.28;;;20.22;100.00
51229;BME280;37304;52.216;6.874;2022-08-26T03:33:03;101100.41;;;20.13;100.00
51229;BME280;37304;52.216;6.874;2022-08-26T03:38:04;101095.38;;;20.08;100.00
51229;BME280;37304;52.216;6.874;2022-08-26T03:43:06;101096.31;;;20.07;100.00
51229;BME280;37304;52.216;6.874;2022-08-26T03:48:07;101101.59;;;20.07;100.00
51229;BME280;37304;52.216;6.874;2022-08-26T03:53:07;101093.81;;;20.04;100.00
51229;BME280;37304;52.216;6.874;2022-08-26T03:58:08;101100.13;;;20.02;100.00
51229;BME280;37304;52.216;6.874;2022-08-26T04:03:08;101100.03;;;20.03;100.00
51229;BME280;37304;52.216;6.874;2022-08-26T04:08:10;101104.38;;;20.04;100.00
51229;BME280;37304;52.216;6.874;2022-08-26T04:13:10;101106.84;;;20.07;100.00
51229;BME280;37304;52.216;6.874;2022-08-26T04:18:11;101108.13;;;20.00;100.00
51229;BME280;37304;52.216;6.874;2022-08-26T04:23:12;101096.72;;;20.00;100.00
51229;BME280;37304;52.216;6.874;2022-08-26T04:28:12;101099.53;;;19.97;100.00
51229;BME280;37304;52.216;6.874;2022-08-26T04:33:14;101102.84;;;20.00;100.00
51229;BME280;37304;52.216;6.874;2022-08-26T04:38:15;101111.63;;;20.01;100.00
51229;BME280;37304;52.216;6.874;2022-08-26T04:43:15;101104.69;;;19.98;100.00
51229;BME280;37304;52.216;6.874;2022-08-26T04:48:15;101119.75;;;19.96;100.00
51229;BME280;37304;52.216;6.874;2022-08-26T04:53:16;101118.00;;;19.97;100.00
51229;BME280;37304;52.216;6.874;2022-08-26T04:58:17;101113.56;;;19.97;100.00
51229;BME280;37304;52.216;6.874;2022-08-26T05:03:18;101128.38;;;20.00;100.00
51229;BME280;37304;52.216;6.874;2022-08-26T05:08:20;101124.81;;;20.01;100.00
51229;BME280;37304;52.216;6.874;2022-08-26T05:13:23;101132.41;;;20.07;100.00
51229;BME280;37304;52.216;6.874;2022-08-26T05:18:25;101132.63;;;20.02;100.00
51229;BME280;37304;52.216;6.874;2022-08-26T05:23:26;101134.00;;;20.10;100.00
51229;BME280;37304;52.216;6.874;2022-08-26T05:28:28;101126.09;;;20.10;100.00
51229;BME280;37304;52.216;6.874;2022-08-26T05:33:29;101137.41;;;20.12;100.00
51229;BME280;37304;52.216;6.874;2022-08-26T05:38:29;101141.91;;;20.10;100.00
51229;BME280;37304;52.216;6.874;2022-08-26T05:43:30;101148.84;;;20.12;100.00
51229;BME280;37304;52.216;6.874;2022-08-26T05:48:30;101152.16;;;20.16;100.00
51229;BME280;37304;52.216;6.874;2022-08-26T05:53:31;101158.38;;;20.15;100.00
51229;BME280;37304;52.216;6.874;2022-08-26T05:58:33;101157.97;;;20.22;100.00
51229;BME280;37304;52.216;6.874;2022-08-26T06:03:36;101145.66;;;20.23;100.00
51229;BME280;37304;52.216;6.874;2022-08-26T06:08:38;101157.91;;;20.24;100.00
51229;BME280;37304;52.216;6.874;2022-08-26T06:13:39;101154.19;;;20.28;100.00
51229;BME280;37304;52.216;6.874;2022-08-26T06:18:42;101158.09;;;20.37;100.00
51229;BME280;37304;52.216;6.874;2022-08-26T06:23:44;101149.34;;;20.36;100.00
51229;BME280;37304;52.216;6.874;2022-08-26T06:29:05;101156.31;;;20.37;100.00
51229;BME280;37304;52.216;6.874;2022-08-26T06:34:05;101152.41;;;20.45;100.00
51229;BME280;37304;52.216;6.874;2022-08-26T06:39:08;101154.91;;;20.48;100.00
51229;BME280;37304;52.216;6.874;2022-08-26T06:44:11;101164.13;;;20.57;100.00
51229;BME280;37304;52.216;6.874;2022-08-26T06:49:11;101176.13;;;20.62;100.00
51229;BME280;37304;52.216;6.874;2022-08-26T06:54:12;101179.03;;;20.74;100.00
51229;BME280;37304;52.216;6.874;2022-08-26T06:59:12;101180.88;;;20.89;100.00
51229;BME280;37304;52.216;6.874;2022-08-26T07:04:15;101189.88;;;20.85;100.00
51229;BME280;37304;52.216;6.874;2022-08-26T07:09:15;101184.44;;;21.04;100.00
51229;BME280;37304;52.216;6.874;2022-08-26T07:14:16;101181.22;;;21.15;100.00
51229;BME280;37304;52.216;6.874;2022-08-26T07:19:18;101186.75;;;21.27;100.00
51229;BME280;37304;52.216;6.874;2022-08-26T07:24:19;101190.16;;;21.29;100.00
51229;BME280;37304;52.216;6.874;2022-08-26T07:29:20;101187.34;;;21.32;100.00
51229;BME280;37304;52.216;6.874;2022-08-26T07:34:20;101190.97;;;21.45;100.00
51229;BME280;37304;52.216;6.874;2022-08-26T07:39:22;101196.78;;;21.52;100.00
51229;BME280;37304;52.216;6.874;2022-08-26T07:44:23;101194.31;;;21.49;100.00
51229;BME280;37304;52.216;6.874;2022-08-26T07:49:24;101193.63;;;21.45;100.00
51229;BME280;37304;52.216;6.874;2022-08-26T07:54:25;101203.88;;;21.35;100.00
51229;BME280;37304;52.216;6.874;2022-08-26T07:59:26;101210.00;;;21.52;100.00
51229;BME280;37304;52.216;6.874;2022-08-26T08:04:27;101210.66;;;21.72;100.00
51229;BME280;37304;52.216;6.874;2022-08-26T08:09:27;101213.31;;;21.72;100.00
51229;BME280;37304;52.216;6.874;2022-08-26T08:14:28;101214.00;;;21.75;100.00
51229;BME280;37304;52.216;6.874;2022-08-26T08:19:28;101211.75;;;21.84;100.00
51229;BME280;37304;52.216;6.874;2022-08-26T08:24:30;101211.19;;;21.78;100.00
51229;BME280;37304;52.216;6.874;2022-08-26T08:29:30;101207.38;;;21.99;100.00
51229;BME280;37304;52.216;6.874;2022-08-26T08:34:31;101212.88;;;22.10;100.00
51229;BME280;37304;52.216;6.874;2022-08-26T08:39:31;101219.22;;;22.22;100.00
51229;BME280;37304;52.216;6.874;2022-08-26T08:44:36;101219.81;;;22.27;100.00
51229;BME280;37304;52.216;6.874;2022-08-26T08:49:37;101218.91;;;22.57;100.00
51229;BME280;37304;52.216;6.874;2022-08-26T08:54:38;101214.09;;;22.64;100.00
51229;BME280;37304;52.216;6.874;2022-08-26T08:59:45;101214.94;;;22.50;100.00
51229;BME280;37304;52.216;6.874;2022-08-26T09:05:07;101217.13;;;22.58;100.00
51229;BME280;37304;52.216;6.874;2022-08-26T09:10:33;101225.81;;;22.60;100.00
51229;BME280;37304;52.216;6.874;2022-08-26T09:16:15;101229.31;;;22.60;100.00
51229;BME280;37304;52.216;6.874;2022-08-26T09:21:19;101230.06;;;22.62;100.00
51229;BME280;37304;52.216;6.874;2022-08-26T09:26:43;101228.53;;;22.73;100.00
51229;BME280;37304;52.216;6.874;2022-08-26T09:31:45;101227.75;;;22.85;100.00
51229;BME280;37304;52.216;6.874;2022-08-26T09:36:57;101232.97;;;23.01;100.00
51229;BME280;37304;52.216;6.874;2022-08-26T09:47:22;101228.78;;;23.11;100.00
51229;BME280;37304;52.216;6.874;2022-08-26T09:52:24;101242.13;;;23.10;100.00
51229;BME280;37304;52.216;6.874;2022-08-26T09:57:31;101232.84;;;23.17;100.00
51229;BME280;37304;52.216;6.874;2022-08-26T10:07:42;101231.59;;;23.37;100.00
51229;BME280;37304;52.216;6.874;2022-08-26T10:12:51;101234.53;;;23.18;100.00
51229;BME280;37304;52.216;6.874;2022-08-26T10:18:21;101235.78;;;23.12;100.00
51229;BME280;37304;52.216;6.874;2022-08-26T10:23:23;101242.78;;;23.13;100.00
51229;BME280;37304;52.216;6.874;2022-08-26T10:28:42;101236.28;;;23.05;100.00
51229;BME280;37304;52.216;6.874;2022-08-26T10:33:43;101227.34;;;23.20;100.00
51229;BME280;37304;52.216;6.874;2022-08-26T10:38:43;101230.88;;;23.06;100.00
51229;BME280;37304;52.216;6.874;2022-08-26T10:43:50;101229.16;;;23.05;100.00
51229;BME280;37304;52.216;6.874;2022-08-26T10:48:56;101224.34;;;23.12;100.00
51229;BME280;37304;52.216;6.874;2022-08-26T11:04:50;101232.69;;;23.06;100.00
51229;BME280;37304;52.216;6.874;2022-08-26T11:09:52;101237.63;;;22.97;100.00
51229;BME280;37304;52.216;6.874;2022-08-26T11:14:52;101244.44;;;23.02;100.00
51229;BME280;37304;52.216;6.874;2022-08-26T11:40:24;101237.41;;;23.01;100.00
51229;BME280;37304;52.216;6.874;2022-08-26T11:45:36;101237.38;;;23.15;100.00
51229;BME280;37304;52.216;6.874;2022-08-26T11:50:37;101234.25;;;23.23;100.00
51229;BME280;37304;52.216;6.874;2022-08-26T11:55:41;101238.09;;;23.46;100.00
51229;BME280;37304;52.216;6.874;2022-08-26T12:00:53;101235.47;;;23.32;100.00
51229;BME280;37304;52.216;6.874;2022-08-26T12:05:54;101237.50;;;23.28;100.00
51229;BME280;37304;52.216;6.874;2022-08-26T12:11:06;101230.19;;;23.17;100.00
51229;BME280;37304;52.216;6.874;2022-08-26T12:16:08;101232.84;;;23.17;100.00
51229;BME280;37304;52.216;6.874;2022-08-26T12:21:14;101243.91;;;23.09;100.00
51229;BME280;37304;52.216;6.874;2022-08-26T12:26:19;101239.38;;;23.11;100.00
51229;BME280;37304;52.216;6.874;2022-08-26T12:31:41;101237.97;;;23.06;100.00
51229;BME280;37304;52.216;6.874;2022-08-26T12:36:45;101237.78;;;23.09;100.00
51229;BME280;37304;52.216;6.874;2022-08-26T12:41:52;101237.53;;;22.84;100.00
51229;BME280;37304;52.216;6.874;2022-08-26T12:46:52;101236.50;;;22.87;100.00
51229;BME280;37304;52.216;6.874;2022-08-26T12:51:53;101230.59;;;22.82;100.00
51229;BME280;37304;52.216;6.874;2022-08-26T12:56:53;101227.56;;;23.03;100.00
51229;BME280;37304;52.216;6.874;2022-08-26T13:01:53;101224.53;;;23.09;100.00
51229;BME280;37304;52.216;6.874;2022-08-26T13:07:32;101225.28;;;23.11;100.00
51229;BME280;37304;52.216;6.874;2022-08-26T13:12:34;101233.94;;;22.86;100.00
51229;BME280;37304;52.216;6.874;2022-08-26T13:17:36;101222.19;;;22.90;100.00
51229;BME280;37304;52.216;6.874;2022-08-26T13:22:38;101220.41;;;22.90;100.00
51229;BME280;37304;52.216;6.874;2022-08-26T13:27:38;101228.06;;;22.95;100.00
51229;BME280;37304;52.216;6.874;2022-08-26T13:32:39;101229.66;;;22.83;100.00
51229;BME280;37304;52.216;6.874;2022-08-26T13:37:40;101225.91;;;22.58;100.00
51229;BME280;37304;52.216;6.874;2022-08-26T13:42:40;101220.31;;;22.77;100.00
51229;BME280;37304;52.216;6.874;2022-08-26T13:47:43;101207.53;;;22.55;100.00
51229;BME280;37304;52.216;6.874;2022-08-26T13:52:44;101215.75;;;22.50;100.00
51229;BME280;37304;52.216;6.874;2022-08-26T13:57:44;101213.75;;;22.39;100.00
51229;BME280;37304;52.216;6.874;2022-08-26T14:02:45;101236.66;;;22.40;100.00
51229;BME280;37304;52.216;6.874;2022-08-26T14:07:45;101233.44;;;22.35;100.00
51229;BME280;37304;52.216;6.874;2022-08-26T14:12:46;101231.53;;;22.23;100.00
51229;BME280;37304;52.216;6.874;2022-08-26T14:17:47;101233.16;;;22.09;100.00
51229;BME280;37304;52.216;6.874;2022-08-26T14:22:48;101236.38;;;22.00;100.00
51229;BME280;37304;52.216;6.874;2022-08-26T14:27:49;101242.03;;;21.94;100.00
51229;BME280;37304;52.216;6.874;2022-08-26T14:32:54;101254.50;;;21.92;100.00
51229;BME280;37304;52.216;6.874;2022-08-26T14:37:55;101241.41;;;21.74;100.00
51229;BME280;37304;52.216;6.874;2022-08-26T14:42:57;101246.50;;;21.77;100.00
51229;BME280;37304;52.216;6.874;2022-08-26T14:47:57;101245.50;;;21.64;100.00
51229;BME280;37304;52.216;6.874;2022-08-26T14:52:59;101247.69;;;21.72;100.00
51229;BME280;37304;52.216;6.874;2022-08-26T15:03:19;101234.22;;;21.76;100.00
51229;BME280;37304;52.216;6.874;2022-08-26T15:08:19;101233.28;;;22.08;100.00
51229;BME280;37304;52.216;6.874;2022-08-26T15:13:22;101233.66;;;22.16;100.00
51229;BME280;37304;52.216;6.874;2022-08-26T15:18:24;101224.41;;;22.23;100.00
51229;BME280;37304;52.216;6.874;2022-08-26T15:23:25;101225.34;;;22.22;100.00
51229;BME280;37304;52.216;6.874;2022-08-26T15:28:26;101222.91;;;22.19;100.00
51229;BME280;37304;52.216;6.874;2022-08-26T15:33:27;101213.81;;;22.23;100.00
51229;BME280;37304;52.216;6.874;2022-08-26T15:38:33;101226.38;;;22.20;100.00
51229;BME280;37304;52.216;6.874;2022-08-26T15:43:37;101221.81;;;22.07;100.00
51229;BME280;37304;52.216;6.874;2022-08-26T15:48:38;101222.00;;;22.04;100.00
51229;BME280;37304;52.216;6.874;2022-08-26T15:53:38;101225.66;;;21.87;100.00
51229;BME280;37304;52.216;6.874;2022-08-26T15:58:39;101224.41;;;21.78;100.00
51229;BME280;37304;52.216;6.874;2022-08-26T16:03:39;101223.13;;;21.70;100.00
51229;BME280;37304;52.216;6.874;2022-08-26T16:08:39;101219.88;;;21.48;100.00
51229;BME280;37304;52.216;6.874;2022-08-26T16:13:41;101218.63;;;21.39;100.00
51229;BME280;37304;52.216;6.874;2022-08-26T16:18:42;101216.00;;;21.39;100.00
51229;BME280;37304;52.216;6.874;2022-08-26T16:23:42;101208.47;;;21.32;100.00
51229;BME280;37304;52.216;6.874;2022-08-26T16:28:44;101210.72;;;21.23;100.00
51229;BME280;37304;52.216;6.874;2022-08-26T16:33:44;101215.31;;;21.20;100.00
51229;BME280;37304;52.216;6.874;2022-08-26T16:38:47;101216.69;;;21.11;100.00
51229;BME280;37304;52.216;6.874;2022-08-26T16:43:49;101223.41;;;21.01;100.00
51229;BME280;37304;52.216;6.874;2022-08-26T16:48:50;101230.63;;;20.81;100.00
51229;BME280;37304;52.216;6.874;2022-08-26T16:53:52;101245.69;;;20.79;100.00
51229;BME280;37304;52.216;6.874;2022-08-26T16:58:53;101250.16;;;20.61;100.00
51229;BME280;37304;52.216;6.874;2022-08-26T17:03:53;101236.94;;;20.61;100.00
51229;BME280;37304;52.216;6.874;2022-08-26T17:08:54;101238.13;;;20.55;100.00
51229;BME280;37304;52.216;6.874;2022-08-26T17:13:54;101237.50;;;20.50;100.00
51229;BME280;37304;52.216;6.874;2022-08-26T17:18:56;101239.97;;;20.53;100.00
51229;BME280;37304;52.216;6.874;2022-08-26T17:23:57;101251.63;;;20.49;100.00
51229;BME280;37304;52.216;6.874;2022-08-26T17:28:58;101251.09;;;20.42;100.00
51229;BME280;37304;52.216;6.874;2022-08-26T17:33:59;101255.91;;;20.34;100.00
51229;BME280;37304;52.216;6.874;2022-08-26T17:38:59;101263.84;;;20.16;100.00
51229;BME280;37304;52.216;6.874;2022-08-26T17:44:00;101266.66;;;20.13;100.00
51229;BME280;37304;52.216;6.874;2022-08-26T17:49:00;101273.22;;;20.04;100.00
51229;BME280;37304;52.216;6.874;2022-08-26T17:54:01;101271.66;;;20.00;100.00
51229;BME280;37304;52.216;6.874;2022-08-26T17:59:03;101280.22;;;20.05;100.00
51229;BME280;37304;52.216;6.874;2022-08-26T18:04:03;101276.25;;;19.97;100.00
51229;BME280;37304;52.216;6.874;2022-08-26T18:09:04;101270.53;;;19.87;100.00
51229;BME280;37304;52.216;6.874;2022-08-26T18:14:04;101285.59;;;19.85;100.00
51229;BME280;37304;52.216;6.874;2022-08-26T18:19:05;101286.09;;;19.74;100.00
51229;BME280;37304;52.216;6.874;2022-08-26T18:24:05;101287.72;;;19.59;100.00
51229;BME280;37304;52.216;6.874;2022-08-26T18:29:06;101291.97;;;19.61;100.00
51229;BME280;37304;52.216;6.874;2022-08-26T18:34:07;101297.09;;;19.45;100.00
51229;BME280;37304;52.216;6.874;2022-08-26T18:39:12;101303.59;;;19.57;100.00
51229;BME280;37304;52.216;6.874;2022-08-26T18:44:15;101312.63;;;19.52;100.00
51229;BME280;37304;52.216;6.874;2022-08-26T18:49:18;101310.13;;;19.48;100.00
51229;BME280;37304;52.216;6.874;2022-08-26T18:54:19;101324.03;;;19.33;100.00
51229;BME280;37304;52.216;6.874;2022-08-26T18:59:20;101320.63;;;19.31;100.00
51229;BME280;37304;52.216;6.874;2022-08-26T19:04:21;101314.91;;;19.21;100.00
51229;BME280;37304;52.216;6.874;2022-08-26T19:09:21;101317.75;;;19.16;100.00
51229;BME280;37304;52.216;6.874;2022-08-26T19:14:25;101324.78;;;19.16;100.00
51229;BME280;37304;52.216;6.874;2022-08-26T19:19:25;101317.91;;;19.13;100.00
51229;BME280;37304;52.216;6.874;2022-08-26T19:24:26;101318.31;;;19.04;100.00
51229;BME280;37304;52.216;6.874;2022-08-26T19:29:30;101316.84;;;18.97;100.00
51229;BME280;37304;52.216;6.874;2022-08-26T19:34:31;101328.91;;;18.82;100.00
51229;BME280;37304;52.216;6.874;2022-08-26T19:39:31;101333.94;;;18.67;100.00
51229;BME280;37304;52.216;6.874;2022-08-26T19:44:32;101334.13;;;18.62;100.00
51229;BME280;37304;52.216;6.874;2022-08-26T19:49:52;101338.66;;;18.59;100.00
51229;BME280;37304;52.216;6.874;2022-08-26T19:54:53;101330.44;;;18.67;100.00
51229;BME280;37304;52.216;6.874;2022-08-26T19:59:53;101333.28;;;18.62;100.00
51229;BME280;37304;52.216;6.874;2022-08-26T20:04:54;101333.28;;;18.62;100.00
51229;BME280;37304;52.216;6.874;2022-08-26T20:09:54;101331.28;;;18.67;100.00
51229;BME280;37304;52.216;6.874;2022-08-26T20:14:55;101333.00;;;18.68;100.00
51229;BME280;37304;52.216;6.874;2022-08-26T20:19:55;101325.38;;;18.62;100.00
51229;BME280;37304;52.216;6.874;2022-08-26T20:25:14;101327.00;;;18.65;100.00
51229;BME280;37304;52.216;6.874;2022-08-26T20:30:15;101321.88;;;18.61;100.00
51229;BME280;37304;52.216;6.874;2022-08-26T20:35:16;101326.47;;;18.56;100.00
51229;BME280;37304;52.216;6.874;2022-08-26T20:40:16;101335.97;;;18.60;100.00
51229;BME280;37304;52.216;6.874;2022-08-26T20:45:17;101333.75;;;18.49;100.00
51229;BME280;37304;52.216;6.874;2022-08-26T20:50:17;101341.75;;;18.48;100.00
51229;BME280;37304;52.216;6.874;2022-08-26T20:55:19;101346.88;;;18.51;100.00
51229;BME280;37304;52.216;6.874;2022-08-26T21:00:19;101336.66;;;18.43;100.00
51229;BME280;37304;52.216;6.874;2022-08-26T21:05:22;101345.22;;;18.48;100.00
51229;BME280;37304;52.216;6.874;2022-08-26T21:10:22;101345.22;;;18.48;100.00
51229;BME280;37304;52.216;6.874;2022-08-26T21:15:23;101351.41;;;18.47;100.00
51229;BME280;37304;52.216;6.874;2022-08-26T21:20:23;101352.94;;;18.53;100.00
51229;BME280;37304;52.216;6.874;2022-08-26T21:25:24;101351.34;;;18.49;100.00
51229;BME280;37304;52.216;6.874;2022-08-26T21:30:26;101339.56;;;18.37;100.00
51229;BME280;37304;52.216;6.874;2022-08-26T21:35:26;101345.19;;;18.28;100.00
51229;BME280;37304;52.216;6.874;2022-08-26T21:40:27;101345.16;;;18.29;100.00
51229;BME280;37304;52.216;6.874;2022-08-26T21:45:27;101346.00;;;18.30;100.00
51229;BME280;37304;52.216;6.874;2022-08-26T21:50:28;101356.09;;;18.18;100.00
51229;BME280;37304;52.216;6.874;2022-08-26T21:55:34;101356.03;;;18.20;100.00
51229;BME280;37304;52.216;6.874;2022-08-26T22:00:34;101358.97;;;18.12;100.00
51229;BME280;37304;52.216;6.874;2022-08-26T22:05:41;101363.31;;;18.13;100.00
51229;BME280;37304;52.216;6.874;2022-08-26T22:10:41;101369.56;;;18.11;100.00
51229;BME280;37304;52.216;6.874;2022-08-26T22:15:42;101370.66;;;18.05;100.00
51229;BME280;37304;52.216;6.874;2022-08-26T22:20:42;101369.00;;;18.02;100.00
51229;BME280;37304;52.216;6.874;2022-08-26T22:25:43;101376.09;;;18.00;100.00
51229;BME280;37304;52.216;6.874;2022-08-26T22:30:44;101370.13;;;17.95;100.00
51229;BME280;37304;52.216;6.874;2022-08-26T22:35:46;101370.00;;;17.98;100.00
51229;BME280;37304;52.216;6.874;2022-08-26T22:40:49;101370.94;;;17.97;100.00
51229;BME280;37304;52.216;6.874;2022-08-26T22:45:51;101364.75;;;17.98;100.00
51229;BME280;37304;52.216;6.874;2022-08-26T22:50:54;101359.56;;;17.97;100.00
51229;BME280;37304;52.216;6.874;2022-08-26T22:55:55;101361.13;;;18.02;100.00
51229;BME280;37304;52.216;6.874;2022-08-26T23:00:55;101358.66;;;17.98;100.00
51229;BME280;37304;52.216;6.874;2022-08-26T23:05:56;101364.31;;;17.87;100.00
51229;BME280;37304;52.216;6.874;2022-08-26T23:10:57;101367.69;;;17.90;100.00
51229;BME280;37304;52.216;6.874;2022-08-26T23:16:07;101369.50;;;17.88;100.00
51229;BME280;37304;52.216;6.874;2022-08-26T23:21:08;101370.00;;;17.76;100.00
51229;BME280;37304;52.216;6.874;2022-08-26T23:26:10;101366.41;;;17.79;100.00
51229;BME280;37304;52.216;6.874;2022-08-26T23:31:10;101362.06;;;17.78;100.00
51229;BME280;37304;52.216;6.874;2022-08-26T23:36:11;101359.44;;;17.78;100.00
51229;BME280;37304;52.216;6.874;2022-08-26T23:41:11;101353.19;;;17.80;100.00
51229;BME280;37304;52.216;6.874;2022-08-26T23:46:12;101356.97;;;17.73;100.00
51229;BME280;37304;52.216;6.874;2022-08-26T23:51:12;101351.66;;;17.74;100.00
51229;BME280;37304;52.216;6.874;2022-08-26T23:56:32;101350.34;;;17.63;100.00
